Aeroporto :
LOGIN :

Iscrizione | Disclaimer

   EN    FR    IT 

 










Sommario :    VFR   VFR Marginale   IFR   IFR Intensivo   IFR Molto Intensivo
Visibilità : 
Base nubi : 
>= 8 km
>= 3000ft
5 / 8 km
1000 / 3000 ft
1500m / 5 km
500 / 1000 ft
800 / 1500m
200 / 500 ft
< 800m
< 200 ft
Simboli :   Temporali  Nebbia  Neve Forte  Precipitazioni Forti  Vento > 20 kt
SIGMETs :   Varie  Temporali  Ghiacco  Turbolenza  Onda orograficha  Ceneri Vulcaniche






- Altitudine del aeroporto : 75 ft
- Codice IATA : YEO


EGDY - RNAS Yeovilton

ULTIMO METAR :
  • 061920Z 13001KT CAVOK 02/00 Q1039 TEMPO 7000 HZ RMK BLU TEMPO WHT

METARs OBSOLETI :
  • 061850Z 28001KT CAVOK 03/01 Q1039 TEMPO 7000 HZ RMK BLU TEMPO WHT
  • 061820Z 23002KT CAVOK 03/00 Q1039 TEMPO 7000 HZ RMK BLU TEMPO WHT
  • 061750Z 20003KT CAVOK 04/01 Q1039 TEMPO 7000 HZ RMK BLU TEMPO WHT
  • 061720Z 19003KT CAVOK 06/01 Q1039 NOSIG RMK BLU BLU
  • 061650Z 17005KT CAVOK 07/01 Q1039 NOSIG RMK BLU BLU

TAF TAF EGDY
Valido dal 06 a 15 ore il 07 a 00 ore UTC


061330Z 0615/0624 04002KT CAVOK
BECMG 0617/0620 7000 HZ
PROB40 0620/0624 4000 BR



MetMap, La meteo Aeronautica in un colpo d'occhio ! - Copyright ORBIFLY Dicembre 2007 - Disclaimer

ORBIFLY MET'MAP TEAM :

Programmazione e sviluppo : Alexandra Zaïnal
Concezione : Baudouin d'Aumeries
Supporto tecnico e logistico : Manuel Goepfert
Aiuto : Marc-Olivier Méhu
Aiuto per la traduzione : Arnaldo La Scala




FONTI E CREDITI :

   NOAA